Time;durP1;ratioP1;P1;durP2;ratioP2;P2;SDS_P1;SDS_P2;PMS_P1;PMS_P2;Temp;Humidity;BMP_temperature;BMP_pressure;BME280_temperature;BME280_humidity;BME280_pressure;Samples;Min_cycle;Max_cycle;Signal;HPM_P1;HPM_P2
2022/06/24 00:00:33;;;;;;;31.77;11.60;;;;;;;22.02;89.43;100144.97;5102702;28;20063;-60
2022/06/24 00:03:00;;;;;;;33.80;11.90;;;;;;;22.01;88.73;100161.41;5111079;28;20043;-61
2022/06/24 00:05:30;;;;;;;25.67;10.88;;;;;;;22.14;85.96;100176.47;5100287;28;20052;-61
2022/06/24 00:07:58;;;;;;;26.85;11.00;;;;;;;22.13;81.90;100202.66;5110507;28;20056;-60
2022/06/24 00:10:34;;;;;;;26.25;10.57;;;;;;;21.74;84.62;100197.13;5110285;28;20093;-61
2022/06/24 00:13:03;;;;;;;28.50;11.07;;;;;;;21.52;85.29;100202.38;5110427;28;20553;-61
2022/06/24 00:15:32;;;;;;;26.05;10.98;;;;;;;21.43;86.64;100188.41;5110218;28;20066;-61
2022/06/24 00:18:17;;;;;;;28.70;11.00;;;;;;;21.42;87.00;100192.13;5110431;28;20048;-61
2022/06/24 00:20:46;;;;;;;18.40;9.75;;;;;;;21.37;86.21;100194.72;5110499;28;20078;-61
2022/06/24 00:23:17;;;;;;;24.40;9.90;;;;;;;21.36;87.02;100195.00;5110428;28;20430;-61
2022/06/24 00:25:46;;;;;;;24.50;9.50;;;;;;;21.25;85.55;100186.69;5110197;28;20165;-61
2022/06/24 00:28:13;;;;;;;25.67;10.20;;;;;;;21.33;85.30;100190.88;5110255;28;20070;-61
2022/06/24 00:30:49;;;;;;;25.15;9.40;;;;;;;21.34;85.13;100206.00;5108375;28;20135;-61
2022/06/24 00:33:19;;;;;;;24.05;9.63;;;;;;;21.27;85.37;100206.13;5109860;28;20043;-61
2022/06/24 00:35:49;;;;;;;24.67;9.48;;;;;;;21.23;85.75;100215.78;5109887;28;20085;-60
2022/06/24 00:38:34;;;;;;;19.77;9.32;;;;;;;21.28;85.55;100236.63;5109928;28;20055;-61
2022/06/24 00:41:04;;;;;;;27.00;10.10;;;;;;;21.26;88.85;100280.00;5110123;28;20454;-61
2022/06/24 00:46:25;;;;;;;23.45;9.88;;;;;;;21.33;88.47;100325.75;5090275;28;20332;-61
2022/06/24 00:48:54;;;;;;;26.23;10.18;;;;;;;21.37;86.73;100334.19;5090582;28;20040;-61
2022/06/24 00:51:23;;;;;;;24.48;9.32;;;;;;;21.37;87.65;100343.09;5079741;28;20052;-61
2022/06/24 00:53:52;;;;;;;23.27;10.10;;;;;;;21.37;88.71;100335.00;5090705;28;20049;-61
2022/06/24 00:56:22;;;;;;;27.95;10.55;;;;;;;21.23;88.93;100331.75;5090508;28;20052;-60
2022/06/24 00:59:09;;;;;;;30.10;8.93;;;;;;;21.16;86.93;100306.78;5090689;28;20498;-60
2022/06/24 01:01:39;;;;;;;27.33;8.55;;;;;;;21.07;87.57;100302.78;5089385;28;20143;-60
2022/06/24 01:04:09;;;;;;;21.67;8.25;;;;;;;21.00;88.74;100286.72;5090203;28;20036;-60
2022/06/24 01:06:39;;;;;;;27.13;8.50;;;;;;;20.92;89.10;100281.69;5081323;28;20064;-62
2022/06/24 01:09:07;;;;;;;22.88;7.72;;;;;;;20.79;89.86;100277.34;5088922;28;20071;-62
2022/06/24 01:11:38;;;;;;;22.65;9.15;;;;;;;20.74;92.31;100279.06;5089472;28;20131;-62
2022/06/24 01:14:06;;;;;;;24.65;9.32;;;;;;;20.63;92.61;100280.69;5090026;28;20101;-62
2022/06/24 01:16:34;;;;;;;26.05;8.88;;;;;;;20.46;92.51;100270.53;5089882;28;20066;-62
2022/06/24 01:19:05;;;;;;;26.90;9.43;;;;;;;20.31;93.00;100267.47;5090008;28;20044;-62
2022/06/24 01:21:49;;;;;;;18.88;9.57;;;;;;;20.29;94.90;100266.88;5089255;28;20502;-62
2022/06/24 01:24:20;;;;;;;20.38;9.15;;;;;;;20.25;94.94;100268.41;5088617;28;20111;-62
2022/06/24 01:26:54;;;;;;;22.80;10.18;;;;;;;20.07;95.80;100262.00;5089738;28;20565;-62
2022/06/24 01:29:21;;;;;;;22.10;8.80;;;;;;;20.03;96.92;100262.69;5088738;28;20047;-62
2022/06/24 01:31:49;;;;;;;27.02;9.82;;;;;;;20.00;97.57;100257.78;5089700;28;20105;-62
2022/06/24 01:34:17;;;;;;;22.27;9.20;;;;;;;20.00;98.04;100252.38;5088227;28;20044;-61
2022/06/24 01:36:44;;;;;;;27.67;9.70;;;;;;;20.04;97.19;100242.81;5089652;28;20052;-61
2022/06/24 01:39:11;;;;;;;25.90;9.85;;;;;;;20.08;96.34;100231.34;5089849;28;20082;-62
2022/06/24 01:41:38;;;;;;;22.17;9.43;;;;;;;20.12;96.55;100223.66;5088391;28;20037;-61
2022/06/24 01:44:06;;;;;;;24.55;9.52;;;;;;;20.14;96.65;100230.44;5089024;28;20551;-62
2022/06/24 01:46:33;;;;;;;21.92;9.27;;;;;;;20.09;97.34;100232.16;5089153;28;20383;-62
2022/06/24 01:48:59;;;;;;;22.38;9.07;;;;;;;20.08;96.91;100225.97;5088383;28;20490;-62
2022/06/24 01:51:27;;;;;;;24.85;9.40;;;;;;;20.17;95.97;100234.53;5089480;28;20405;-62
2022/06/24 01:53:54;;;;;;;22.80;8.73;;;;;;;20.21;98.21;100248.34;5089267;28;20040;-62
2022/06/24 01:56:21;;;;;;;23.67;8.02;;;;;;;20.16;96.17;100262.50;5082334;28;20041;-62
2022/06/24 01:58:48;;;;;;;18.40;7.55;;;;;;;20.06;95.99;100257.66;5075944;28;20060;-61
2022/06/24 02:01:18;;;;;;;21.58;7.28;;;;;;;20.01;95.07;100268.31;5075880;28;20135;-62
2022/06/24 02:03:45;;;;;;;19.70;7.60;;;;;;;19.96;95.39;100284.31;5074017;28;20064;-61
2022/06/24 02:06:13;;;;;;;23.83;7.65;;;;;;;20.12;95.18;100278.31;5075173;28;20548;-62
2022/06/24 02:08:41;;;;;;;19.42;8.00;;;;;;;20.13;95.28;100271.03;5075256;28;20410;-62
2022/06/24 02:13:59;;;;;;;17.42;7.88;;;;;;;20.16;96.27;100286.75;5075592;28;20090;-62
2022/06/24 02:16:26;;;;;;;23.60;9.05;;;;;;;20.13;95.75;100285.31;5075743;28;20032;-61
2022/06/24 02:18:55;;;;;;;22.08;8.38;;;;;;;20.06;96.12;100275.69;5075825;28;20056;-62
2022/06/24 02:21:23;;;;;;;21.30;7.22;;;;;;;20.09;94.59;100273.38;5057554;28;20484;-62
2022/06/24 02:23:50;;;;;;;19.25;7.63;;;;;;;20.05;94.73;100263.31;5075470;28;20051;-62
2022/06/24 02:26:19;;;;;;;24.48;7.18;;;;;;;19.93;95.22;100257.84;5075510;28;20045;-62
2022/06/24 02:28:46;;;;;;;21.08;7.07;;;;;;;19.92;93.99;100242.75;5074150;28;20796;-62
2022/06/24 02:31:13;;;;;;;20.10;6.90;;;;;;;19.83;93.34;100236.03;5075185;28;20075;-62
2022/06/24 02:33:40;;;;;;;17.30;7.07;;;;;;;19.76;95.95;100236.13;5074571;28;20044;-61
2022/06/24 02:36:07;;;;;;;16.45;6.97;;;;;;;19.70;95.30;100234.31;5065486;28;20040;-62
2022/06/24 02:38:34;;;;;;;16.63;6.68;;;;;;;19.65;94.45;100231.50;5074925;28;20379;-62
2022/06/24 02:41:01;;;;;;;16.38;7.40;;;;;;;19.74;96.17;100238.25;5074440;28;20106;-61
2022/06/24 02:43:31;;;;;;;18.15;7.90;;;;;;;19.77;96.56;100245.03;5073946;28;20041;-61
2022/06/24 02:46:01;;;;;;;20.15;7.78;;;;;;;19.79;96.79;100245.63;5074377;28;20051;-61
2022/06/24 02:48:29;;;;;;;14.37;8.10;;;;;;;19.77;95.23;100240.44;5074644;28;20090;-61
2022/06/24 02:50:58;;;;;;;16.27;8.02;;;;;;;19.71;95.01;100235.97;5074568;28;20058;-61
2022/06/24 02:53:27;;;;;;;14.07;7.80;;;;;;;19.72;95.80;100221.47;5074725;28;20041;-61
2022/06/24 02:55:57;;;;;;;17.38;7.45;;;;;;;19.76;95.60;100211.91;5074672;28;20041;-61
2022/06/24 02:58:25;;;;;;;16.43;7.83;;;;;;;19.73;95.83;100210.50;5073868;28;20052;-61
2022/06/24 03:00:52;;;;;;;17.45;8.25;;;;;;;19.78;96.56;100206.31;5073376;28;20044;-61
2022/06/24 03:03:20;;;;;;;20.08;8.80;;;;;;;19.72;96.70;100194.56;5074149;28;20049;-61
2022/06/24 03:05:47;;;;;;;17.83;8.68;;;;;;;19.75;95.94;100184.19;5074325;28;20036;-61
2022/06/24 03:08:16;;;;;;;18.38;9.18;;;;;;;19.68;96.13;100187.97;5063306;28;20049;-62
2022/06/24 03:10:43;;;;;;;23.23;9.52;;;;;;;19.73;96.30;100199.72;5054571;28;20060;-61
2022/06/24 03:13:10;;;;;;;19.08;9.55;;;;;;;19.67;96.47;100203.31;5054505;28;20052;-61
2022/06/24 03:15:38;;;;;;;17.25;10.18;;;;;;;19.69;97.39;100213.84;5054306;28;20052;-61
2022/06/24 03:18:05;;;;;;;20.30;9.80;;;;;;;19.76;97.11;100217.31;5054261;28;20128;-61
2022/06/24 03:20:32;;;;;;;18.98;10.48;;;;;;;19.80;97.50;100212.28;5054469;28;20132;-61
2022/06/24 03:22:59;;;;;;;18.20;9.90;;;;;;;19.80;95.89;100193.44;5054315;28;20041;-61
2022/06/24 03:25:26;;;;;;;18.90;10.57;;;;;;;19.82;95.65;100200.22;5053682;28;20037;-61
2022/06/24 03:27:53;;;;;;;17.10;11.05;;;;;;;19.84;96.65;100213.47;5054445;28;20055;-61
2022/06/24 03:30:20;;;;;;;21.42;11.32;;;;;;;19.87;96.79;100218.41;5053594;28;20428;-61
2022/06/24 03:32:47;;;;;;;19.63;11.55;;;;;;;19.88;97.43;100217.34;5053993;28;20033;-61
2022/06/24 03:35:14;;;;;;;19.77;10.73;;;;;;;19.89;97.54;100219.81;5052753;28;20041;-61
2022/06/24 03:37:40;;;;;;;19.15;10.98;;;;;;;19.92;96.96;100211.28;5071691;28;20490;-61
2022/06/24 03:40:08;;;;;;;18.67;10.98;;;;;;;19.99;97.39;100213.03;5073415;28;20103;-61
2022/06/24 03:42:34;;;;;;;21.05;11.13;;;;;;;20.01;97.89;100211.78;5073813;28;20071;-61
2022/06/24 03:45:01;;;;;;;19.50;12.25;;;;;;;20.01;97.59;100209.09;5073135;28;20056;-61
2022/06/24 03:47:28;;;;;;;21.75;12.07;;;;;;;20.04;96.64;100205.91;5055775;28;20498;-61
2022/06/24 03:49:54;;;;;;;20.58;11.73;;;;;;;20.09;97.05;100205.25;5073041;28;20332;-61
2022/06/24 03:52:21;;;;;;;22.25;11.80;;;;;;;20.06;96.35;100203.81;5073649;28;20049;-61
2022/06/24 03:54:48;;;;;;;20.75;12.13;;;;;;;20.04;97.30;100203.22;5072497;28;20053;-61
2022/06/24 03:57:15;;;;;;;18.33;11.93;;;;;;;20.01;95.62;100194.78;5073610;28;20065;-61
2022/06/24 03:59:41;;;;;;;18.42;11.63;;;;;;;19.95;96.87;100199.22;5073576;28;20049;-61
2022/06/24 04:02:08;;;;;;;22.00;12.27;;;;;;;19.98;96.98;100200.66;5064702;28;20441;-61
2022/06/24 04:04:35;;;;;;;20.48;13.10;;;;;;;19.99;97.93;100203.09;5070503;28;20052;-61
2022/06/24 04:07:02;;;;;;;25.92;12.98;;;;;;;20.04;97.93;100200.53;5076383;28;20565;-61
2022/06/24 04:09:28;;;;;;;22.38;12.07;;;;;;;19.95;97.09;100199.22;5077090;28;20405;-61
2022/06/24 04:11:55;;;;;;;21.35;12.93;;;;;;;19.97;96.64;100209.75;5070835;28;20110;-61
2022/06/24 04:17:09;;;;;;;24.70;12.93;;;;;;;19.96;97.45;100206.25;5076475;28;20091;-59
2022/06/24 04:19:36;;;;;;;21.60;12.68;;;;;;;19.93;97.55;100214.78;5071467;28;20087;-60
2022/06/24 04:22:04;;;;;;;23.00;13.25;;;;;;;19.89;97.40;100205.53;5073387;28;20066;-60
2022/06/24 04:24:31;;;;;;;21.42;12.85;;;;;;;19.86;96.75;100204.09;5073133;28;20078;-60
2022/06/24 04:26:57;;;;;;;22.50;13.05;;;;;;;19.83;97.71;100207.28;5073171;28;20044;-60
2022/06/24 04:29:25;;;;;;;24.20;14.18;;;;;;;19.92;97.60;100207.78;5073211;28;20052;-60
2022/06/24 04:31:52;;;;;;;23.75;13.05;;;;;;;19.91;96.74;100206.13;5071338;28;20052;-60
2022/06/24 04:34:21;;;;;;;22.73;12.13;;;;;;;19.94;96.74;100201.09;5072782;28;20044;-60
2022/06/24 04:36:48;;;;;;;20.80;13.27;;;;;;;19.90;96.60;100193.69;5071921;28;20375;-60
2022/06/24 04:39:15;;;;;;;20.80;12.68;;;;;;;19.90;97.42;100191.84;5072905;28;20090;-60
2022/06/24 04:41:41;;;;;;;21.65;13.18;;;;;;;19.84;98.46;100190.06;5072924;28;20049;-60
2022/06/24 04:44:08;;;;;;;22.75;12.90;;;;;;;19.89;97.91;100194.78;5072542;28;20090;-61
2022/06/24 04:46:35;;;;;;;20.88;13.00;;;;;;;19.85;98.02;100197.09;5072796;28;20048;-61
2022/06/24 04:49:02;;;;;;;20.48;12.52;;;;;;;19.83;98.60;100201.03;5073000;28;20478;-62
2022/06/24 04:51:29;;;;;;;20.55;12.63;;;;;;;19.82;98.15;100197.53;5072687;28;20053;-61
2022/06/24 04:53:56;;;;;;;23.35;12.82;;;;;;;19.79;97.74;100205.25;5072381;28;20068;-61
2022/06/24 04:56:22;;;;;;;24.42;12.95;;;;;;;19.78;98.01;100207.13;5071788;28;20128;-60
2022/06/24 04:58:49;;;;;;;22.67;13.10;;;;;;;19.75;99.29;100207.56;5071821;28;20060;-61
2022/06/24 05:01:16;;;;;;;25.58;14.52;;;;;;;19.74;98.29;100214.84;5072465;28;20047;-61
2022/06/24 05:03:43;;;;;;;24.92;14.07;;;;;;;19.68;98.26;100213.03;5072062;28;20036;-61
2022/06/24 05:06:10;;;;;;;23.38;13.75;;;;;;;19.62;97.70;100218.47;5070448;28;20037;-61
2022/06/24 05:08:37;;;;;;;23.40;12.93;;;;;;;19.60;97.72;100224.09;5065929;28;20041;-61
2022/06/24 05:11:05;;;;;;;30.92;13.52;;;;;;;19.64;98.56;100219.06;5065679;28;20432;-61
2022/06/24 05:13:32;;;;;;;25.92;13.60;;;;;;;19.65;99.28;100218.84;5072917;28;20052;-61
2022/06/24 05:15:58;;;;;;;25.73;14.25;;;;;;;19.60;98.07;100223.28;5072336;28;20040;-61
2022/06/24 05:18:31;;;;;;;23.75;13.77;;;;;;;19.65;98.03;100228.81;5072374;28;20098;-61
2022/06/24 05:20:58;;;;;;;25.65;14.10;;;;;;;19.61;97.17;100224.91;5072050;28;20106;-62
2022/06/24 05:23:25;;;;;;;22.95;14.65;;;;;;;19.64;99.05;100232.53;5072441;28;20040;-61
2022/06/24 05:25:51;;;;;;;24.50;14.85;;;;;;;19.63;97.43;100233.56;5072197;28;20063;-61
2022/06/24 05:28:18;;;;;;;23.17;14.48;;;;;;;19.63;98.42;100225.50;5072406;28;20468;-61
2022/06/24 05:30:46;;;;;;;24.15;14.52;;;;;;;19.65;98.11;100228.81;5070863;28;20056;-61
2022/06/24 05:33:13;;;;;;;23.02;14.15;;;;;;;19.68;99.04;100228.34;5075849;28;20098;-62
2022/06/24 05:35:40;;;;;;;24.55;13.02;;;;;;;19.67;98.09;100234.78;5076093;28;20032;-61
2022/06/24 05:38:06;;;;;;;24.95;12.25;;;;;;;19.60;97.86;100221.41;5075667;28;20041;-61
2022/06/24 05:40:33;;;;;;;21.85;12.80;;;;;;;19.64;97.69;100221.75;5076001;28;20376;-61
2022/06/24 05:43:00;;;;;;;20.15;12.30;;;;;;;19.72;98.51;100221.47;5076142;28;20136;-61
2022/06/24 05:45:27;;;;;;;20.30;11.63;;;;;;;19.69;97.23;100221.91;5075052;28;20506;-61
2022/06/24 05:47:53;;;;;;;18.35;10.93;;;;;;;19.66;95.78;100227.75;5074459;28;20046;-61
2022/06/24 05:50:20;;;;;;;20.00;11.13;;;;;;;19.69;96.54;100217.34;5057888;28;20071;-61
2022/06/24 05:55:33;;;;;;;25.42;11.25;;;;;;;19.52;96.04;100211.78;5075368;28;20036;-61
2022/06/24 05:58:00;;;;;;;23.40;10.40;;;;;;;19.50;95.96;100205.81;5075501;28;20048;-61
2022/06/24 06:00:27;;;;;;;19.58;10.50;;;;;;;19.44;95.82;100208.56;5075474;28;20074;-61
2022/06/24 06:02:53;;;;;;;22.67;11.20;;;;;;;19.47;96.45;100205.44;5074241;28;20497;-61
2022/06/24 06:05:20;;;;;;;27.35;10.75;;;;;;;19.56;97.33;100204.88;5069016;28;20098;-61
2022/06/24 06:07:47;;;;;;;21.15;9.93;;;;;;;19.47;96.60;100200.88;5072721;28;20089;-61
2022/06/24 06:10:14;;;;;;;20.40;9.65;;;;;;;19.61;96.12;100196.16;5075244;28;20139;-61
2022/06/24 06:12:40;;;;;;;20.08;10.35;;;;;;;19.73;97.13;100196.22;5075824;28;20055;-60
2022/06/24 06:15:07;;;;;;;21.80;10.32;;;;;;;19.84;96.68;100200.81;5075381;28;20036;-60
2022/06/24 06:17:34;;;;;;;20.80;9.50;;;;;;;19.84;94.12;100194.63;5075565;28;20052;-60
2022/06/24 06:20:02;;;;;;;21.55;9.38;;;;;;;19.70;93.15;100185.88;5074772;28;20051;-60
2022/06/24 06:22:28;;;;;;;19.15;9.70;;;;;;;19.75;94.06;100192.28;5055308;28;20045;-60
2022/06/24 06:24:55;;;;;;;20.13;9.45;;;;;;;19.77;93.86;100194.72;5055028;28;20068;-60
2022/06/24 06:27:22;;;;;;;15.63;8.50;;;;;;;19.83;92.58;100195.66;5070339;28;20036;-60
2022/06/24 06:29:49;;;;;;;21.48;9.48;;;;;;;19.82;92.34;100191.34;5070029;28;20037;-60
2022/06/24 06:32:16;;;;;;;20.35;9.48;;;;;;;19.78;92.67;100193.66;5054346;28;20041;-61
2022/06/24 06:34:43;;;;;;;23.00;9.35;;;;;;;19.78;93.17;100192.84;5054883;28;20487;-59
2022/06/24 06:37:11;;;;;;;16.90;9.48;;;;;;;19.73;92.34;100188.16;5055294;28;20041;-60
2022/06/24 06:39:37;;;;;;;18.40;9.75;;;;;;;19.73;93.75;100185.47;5053757;28;20053;-60
2022/06/24 06:42:04;;;;;;;23.70;10.65;;;;;;;19.86;93.28;100187.13;5054993;28;20140;-60
2022/06/24 06:44:43;;;;;;;22.25;10.85;;;;;;;19.89;93.83;100184.81;5053699;28;20048;-60
2022/06/24 06:47:09;;;;;;;22.88;9.20;;;;;;;19.81;92.59;100187.84;5055087;28;20487;-61
2022/06/24 06:49:36;;;;;;;18.45;10.20;;;;;;;19.87;92.28;100186.09;5054333;28;20044;-60
2022/06/24 06:52:03;;;;;;;20.83;9.65;;;;;;;19.78;92.26;100190.97;5053590;28;20055;-61
2022/06/24 06:54:30;;;;;;;21.70;9.65;;;;;;;19.77;92.64;100188.50;5054708;28;20445;-60
2022/06/24 06:56:57;;;;;;;21.02;10.35;;;;;;;19.80;92.79;100191.56;5065172;28;20098;-60
2022/06/24 06:59:24;;;;;;;19.80;11.40;;;;;;;19.72;92.31;100195.38;5074371;28;20090;-60
2022/06/24 07:01:51;;;;;;;21.98;10.98;;;;;;;19.59;94.05;100198.22;5074450;28;20132;-60
2022/06/24 07:04:17;;;;;;;17.70;11.95;;;;;;;19.61;93.90;100203.38;5073838;28;20048;-60
2022/06/24 07:06:44;;;;;;;25.10;12.45;;;;;;;19.53;94.10;100205.34;5073270;28;20393;-60
2022/06/24 07:09:11;;;;;;;25.50;14.10;;;;;;;19.45;97.07;100202.16;5065641;28;20045;-60
2022/06/24 07:11:38;;;;;;;21.38;9.95;;;;;;;19.36;96.57;100215.88;5074144;28;20080;-60
2022/06/24 07:14:04;;;;;;;18.27;8.77;;;;;;;19.19;94.11;100220.22;5074318;28;20552;-60
2022/06/24 07:16:31;;;;;;;17.00;8.07;;;;;;;19.19;96.60;100228.28;5074160;28;20043;-60
2022/06/24 07:18:58;;;;;;;22.77;9.70;;;;;;;19.13;97.18;100235.38;5073289;28;20507;-60
2022/06/24 07:21:24;;;;;;;23.88;8.75;;;;;;;19.12;98.54;100228.38;5073384;28;20048;-60
2022/06/24 07:23:51;;;;;;;25.55;8.82;;;;;;;18.98;98.36;100216.09;5074397;28;20041;-59
2022/06/24 07:26:18;;;;;;;44.78;8.50;;;;;;;18.89;100.00;100228.19;5073015;28;20052;-60
2022/06/24 07:28:44;;;;;;;17.70;7.07;;;;;;;18.77;98.37;100226.19;5074520;28;20510;-60
2022/06/24 07:31:15;;;;;;;22.63;6.85;;;;;;;18.66;99.96;100242.19;5069545;28;20398;-60
2022/06/24 07:33:43;;;;;;;22.17;7.57;;;;;;;18.61;100.00;100232.13;5070032;28;20045;-60
2022/06/24 07:36:10;;;;;;;31.45;7.53;;;;;;;18.65;100.00;100227.94;5073817;28;20044;-59
2022/06/24 07:38:36;;;;;;;27.48;7.40;;;;;;;18.49;100.00;100232.00;5073870;28;20144;-60
2022/06/24 07:41:04;;;;;;;18.40;6.65;;;;;;;18.33;99.81;100238.72;5073814;28;20045;-60
2022/06/24 07:43:31;;;;;;;25.83;6.72;;;;;;;18.22;100.00;100236.72;5073689;28;20399;-60
2022/06/24 07:45:58;;;;;;;17.55;6.38;;;;;;;18.29;100.00;100228.63;5072899;28;20055;-60
2022/06/24 07:48:25;;;;;;;22.63;6.60;;;;;;;18.30;100.00;100228.44;5073837;28;20398;-60
2022/06/24 07:50:52;;;;;;;17.35;6.32;;;;;;;18.33;100.00;100227.16;5073981;28;20126;-61
2022/06/24 07:53:18;;;;;;;21.20;6.03;;;;;;;18.43;100.00;100224.81;5073443;28;20040;-61
2022/06/24 07:58:32;;;;;;;12.88;6.88;;;;;;;18.51;100.00;100243.34;5073543;28;20040;-61
2022/06/24 08:01:01;;;;;;;16.60;7.43;;;;;;;18.60;100.00;100246.59;5073719;28;20444;-61
2022/06/24 08:03:27;;;;;;;18.13;7.63;;;;;;;18.69;100.00;100250.63;5072902;28;20036;-61
2022/06/24 08:05:54;;;;;;;17.73;7.68;;;;;;;18.72;100.00;100244.84;5072037;28;20040;-61
2022/06/24 08:08:21;;;;;;;16.58;8.20;;;;;;;18.73;100.00;100241.09;5073067;28;20040;-61
2022/06/24 08:10:48;;;;;;;22.33;7.75;;;;;;;18.86;100.00;100237.50;5073677;28;20044;-61
2022/06/24 08:13:15;;;;;;;19.52;7.90;;;;;;;18.81;100.00;100237.34;5073560;28;20397;-61
2022/06/24 08:15:42;;;;;;;20.48;8.40;;;;;;;18.86;99.32;100248.25;5073235;28;20490;-61
2022/06/24 08:18:09;;;;;;;18.48;8.05;;;;;;;18.74;99.52;100241.94;5072981;28;20040;-60
2022/06/24 08:20:36;;;;;;;15.35;8.13;;;;;;;18.85;99.02;100237.75;5073127;28;20044;-61
2022/06/24 08:23:02;;;;;;;15.00;8.52;;;;;;;18.85;98.22;100245.81;5073344;28;20056;-61
2022/06/24 08:25:29;;;;;;;20.35;9.50;;;;;;;18.88;100.00;100248.88;5073377;28;20040;-61
2022/06/24 08:27:57;;;;;;;14.85;8.10;;;;;;;18.84;100.00;100252.19;5039152;28;20047;-61
2022/06/24 08:30:24;;;;;;;16.85;8.82;;;;;;;18.94;100.00;100256.03;5073153;28;20551;-61
2022/06/24 08:32:51;;;;;;;18.02;9.23;;;;;;;18.96;100.00;100256.63;5064810;28;20059;-61
2022/06/24 08:35:18;;;;;;;18.48;10.13;;;;;;;18.97;99.14;100252.91;5072168;28;20097;-61
2022/06/24 08:38:00;;;;;;;21.75;10.88;;;;;;;18.94;98.27;100250.66;5072573;28;20047;-61
2022/06/24 08:40:29;;;;;;;25.80;11.55;;;;;;;18.86;98.97;100253.63;5073075;28;20401;-61
2022/06/24 08:42:57;;;;;;;19.88;11.27;;;;;;;18.88;98.25;100256.94;5072971;28;20410;-61
2022/06/24 08:45:25;;;;;;;19.48;10.45;;;;;;;18.95;96.65;100254.97;5072439;28;20515;-61
2022/06/24 08:47:52;;;;;;;19.17;9.20;;;;;;;18.89;97.79;100250.50;5072114;28;20441;-61
2022/06/24 08:50:18;;;;;;;18.15;9.07;;;;;;;18.90;96.39;100249.47;5072654;28;20047;-61
2022/06/24 08:52:48;;;;;;;20.33;10.60;;;;;;;18.91;95.96;100251.09;5072657;28;20047;-61
2022/06/24 08:55:19;;;;;;;19.55;8.50;;;;;;;18.98;95.49;100257.22;5073169;28;20068;-61
2022/06/24 08:57:47;;;;;;;16.88;9.25;;;;;;;19.01;98.31;100255.97;5072786;28;20110;-61
2022/06/24 09:00:14;;;;;;;19.40;8.52;;;;;;;18.96;95.81;100255.81;5072980;28;20044;-61
2022/06/24 09:02:41;;;;;;;19.63;9.25;;;;;;;19.01;96.35;100258.66;5072500;28;20060;-61
2022/06/24 09:05:12;;;;;;;16.60;9.10;;;;;;;19.10;97.29;100260.03;5071591;28;20079;-61
2022/06/24 09:07:39;;;;;;;17.17;9.00;;;;;;;19.11;97.18;100264.34;5076301;28;20071;-61
2022/06/24 09:10:10;;;;;;;17.90;8.32;;;;;;;18.96;96.02;100264.69;5077489;28;20041;-61
2022/06/24 09:12:40;;;;;;;16.48;8.68;;;;;;;19.02;97.65;100267.56;5096551;28;20416;-61
2022/06/24 09:15:09;;;;;;;16.38;9.25;;;;;;;19.11;97.55;100268.91;5095733;28;20097;-61
2022/06/24 09:17:37;;;;;;;17.60;8.93;;;;;;;19.21;98.03;100263.00;5096755;28;20066;-61
2022/06/24 09:20:22;;;;;;;18.00;9.77;;;;;;;19.37;97.84;100271.34;5096491;28;20925;-62
2022/06/24 09:23:04;;;;;;;15.32;9.35;;;;;;;19.42;96.15;100275.22;5096760;28;20044;-61
2022/06/24 09:25:48;;;;;;;18.10;9.60;;;;;;;19.40;94.29;100270.03;5095738;28;20048;-61
2022/06/24 09:28:24;;;;;;;22.20;10.40;;;;;;;19.60;94.88;100269.00;5095296;28;20064;-60
2022/06/24 09:31:04;;;;;;;18.98;10.52;;;;;;;19.62;95.76;100274.97;5096076;28;20048;-61
2022/06/24 09:33:40;;;;;;;24.58;12.43;;;;;;;19.68;92.90;100272.22;5096458;28;20477;-60
2022/06/24 09:36:09;;;;;;;20.20;11.82;;;;;;;19.66;94.94;100268.91;5095564;28;20052;-60
2022/06/24 09:38:53;;;;;;;22.30;13.70;;;;;;;19.68;95.89;100264.16;5095340;28;20043;-61
2022/06/24 09:41:21;;;;;;;19.17;11.20;;;;;;;19.87;95.31;100270.34;5096546;28;20071;-61
2022/06/24 09:43:49;;;;;;;17.65;9.73;;;;;;;19.89;93.10;100260.19;5096211;28;20055;-60
2022/06/24 09:46:19;;;;;;;16.25;9.30;;;;;;;20.02;92.19;100269.94;5096465;28;20050;-61
2022/06/24 09:48:47;;;;;;;15.60;8.32;;;;;;;20.11;90.43;100263.19;5096285;28;20043;-61
2022/06/24 09:51:16;;;;;;;20.98;10.38;;;;;;;20.36;93.12;100254.16;5096124;28;20048;-60
2022/06/24 09:53:45;;;;;;;18.60;9.53;;;;;;;20.55;92.63;100259.44;5096366;28;20447;-61
2022/06/24 09:56:13;;;;;;;15.82;9.48;;;;;;;20.55;89.41;100254.88;5091047;28;20056;-61
2022/06/24 09:58:43;;;;;;;18.15;8.60;;;;;;;20.65;87.68;100248.97;5075869;28;20033;-61
2022/06/24 10:01:10;;;;;;;20.33;11.63;;;;;;;20.96;92.55;100245.09;5076013;28;20482;-61
2022/06/24 10:03:38;;;;;;;16.33;10.23;;;;;;;21.17;88.14;100245.56;5075477;28;20490;-61
2022/06/24 10:06:09;;;;;;;17.95;9.85;;;;;;;21.39;86.72;100238.50;5069192;28;20037;-61
2022/06/24 10:08:37;;;;;;;18.70;9.88;;;;;;;21.35;83.06;100239.19;5075128;28;20406;-60
2022/06/24 10:11:26;;;;;;;16.20;9.60;;;;;;;21.34;84.64;100243.78;5075308;28;20052;-61
2022/06/24 10:13:54;;;;;;;17.30;9.52;;;;;;;21.73;84.53;100246.75;5074128;28;20044;-61
2022/06/24 10:16:21;;;;;;;14.90;9.70;;;;;;;22.00;84.98;100247.00;5074420;28;20070;-61
2022/06/24 10:18:50;;;;;;;18.33;8.68;;;;;;;21.85;80.21;100242.13;5073483;28;20086;-61
2022/06/24 10:21:19;;;;;;;17.30;9.50;;;;;;;21.75;80.42;100241.94;5074639;28;20051;-61
2022/06/24 10:23:50;;;;;;;14.40;8.23;;;;;;;21.62;80.46;100239.53;5075457;28;20052;-61
2022/06/24 10:26:29;;;;;;;19.10;8.40;;;;;;;21.46;79.98;100246.47;5075553;28;20056;-61
2022/06/24 10:29:16;;;;;;;18.08;8.15;;;;;;;21.28;80.09;100236.63;5075159;28;20432;-61
2022/06/24 10:39:56;;;;;;;16.00;7.70;;;;;;;22.68;76.16;100260.63;5110841;27;20354;-61
2022/06/24 10:42:25;;;;;;;14.23;6.68;;;;;;;22.69;75.29;100253.34;5110090;28;20043;-61
2022/06/24 10:45:03;;;;;;;12.32;5.75;;;;;;;22.29;70.67;100267.81;5110937;28;20048;-61
2022/06/24 10:47:37;;;;;;;15.20;6.25;;;;;;;22.08;72.58;100255.78;5110824;28;20063;-61
2022/06/24 10:52:48;;;;;;;11.02;5.63;;;;;;;21.70;72.97;100255.31;5070286;28;19916;-61
2022/06/24 10:55:21;;;;;;;11.13;5.72;;;;;;;21.64;74.93;100264.38;5070328;28;20090;-61
2022/06/24 10:57:52;;;;;;;10.27;5.97;;;;;;;21.61;76.52;100259.44;5070344;28;20049;-61
2022/06/24 11:00:24;;;;;;;11.90;5.70;;;;;;;21.57;76.70;100266.41;5069104;28;20421;-61
2022/06/24 11:02:57;;;;;;;18.35;8.23;;;;;;;21.57;78.23;100261.81;5070350;28;20482;-60
2022/06/24 11:05:29;;;;;;;16.17;7.20;;;;;;;21.31;81.36;100265.00;5063383;28;20936;-61
2022/06/24 11:07:56;;;;;;;18.35;9.70;;;;;;;21.28;85.38;100269.00;5067629;28;20044;-61
2022/06/24 11:10:27;;;;;;;16.05;8.82;;;;;;;21.08;86.07;100264.81;5067155;28;20064;-61
2022/06/24 11:12:58;;;;;;;20.25;10.15;;;;;;;21.14;87.60;100265.72;5052851;28;20441;-61
2022/06/24 11:15:38;;;;;;;19.20;10.40;;;;;;;21.42;87.23;100256.88;5049004;28;20071;-61
2022/06/24 11:18:12;;;;;;;16.40;10.20;;;;;;;21.83;88.20;100263.16;5050260;28;20041;-62
2022/06/24 11:20:51;;;;;;;17.58;9.75;;;;;;;22.10;86.71;100254.47;5053704;28;20076;-62
2022/06/24 11:23:21;;;;;;;19.20;9.07;;;;;;;22.38;82.87;100255.53;5069973;28;20059;-61
2022/06/24 11:25:56;;;;;;;13.43;8.15;;;;;;;22.71;80.00;100254.72;5069496;28;20040;-62
2022/06/24 11:28:28;;;;;;;14.50;9.32;;;;;;;23.11;85.39;100248.31;5068624;28;20060;-61
2022/06/24 11:31:13;;;;;;;13.20;7.43;;;;;;;23.25;76.00;100242.53;5069621;28;20540;-61
2022/06/24 11:33:40;;;;;;;15.13;8.50;;;;;;;23.63;81.32;100257.09;5069154;28;20283;-63
2022/06/24 11:36:08;;;;;;;13.32;7.47;;;;;;;23.81;78.28;100245.16;5069471;28;20045;-62
2022/06/24 11:38:54;;;;;;;13.35;6.97;;;;;;;23.77;70.89;100248.31;5069567;28;20037;-61
2022/06/24 11:41:30;;;;;;;13.70;6.00;;;;;;;23.81;70.15;100243.25;5069598;28;20040;-62
2022/06/24 11:44:09;;;;;;;9.30;4.60;;;;;;;23.56;71.72;100235.66;5069502;28;20135;-61
2022/06/24 11:46:36;;;;;;;8.65;4.40;;;;;;;23.75;74.84;100230.69;5067895;28;20041;-61